createdAt,value
2019-03-21T00:01:33.820Z,8.08
2019-03-21T00:04:06.149Z,7.50
2019-03-21T00:06:35.402Z,7.30
2019-03-21T00:09:08.199Z,7.30
2019-03-21T00:12:01.935Z,6.77
2019-03-21T00:14:46.454Z,7.33
2019-03-21T00:17:16.602Z,6.47
2019-03-21T00:19:45.877Z,7.00
2019-03-21T00:22:15.147Z,6.30
2019-03-21T00:24:44.430Z,7.00
2019-03-21T00:27:13.753Z,6.07
2019-03-21T00:29:43.003Z,6.03
2019-03-21T00:32:12.276Z,6.43
2019-03-21T00:34:41.541Z,6.27
2019-03-21T00:37:10.806Z,6.33
2019-03-21T00:39:40.073Z,6.43
2019-03-21T00:42:09.344Z,5.47
2019-03-21T00:44:38.610Z,5.97
2019-03-21T00:47:07.846Z,5.93
2019-03-21T00:49:37.123Z,6.00
2019-03-21T00:52:06.571Z,5.40
2019-03-21T00:54:35.920Z,5.27
2019-03-21T00:57:05.260Z,5.60
2019-03-21T00:59:34.522Z,5.03
2019-03-21T01:02:03.982Z,5.37
2019-03-21T01:04:34.339Z,4.83
2019-03-21T01:07:04.298Z,5.20
2019-03-21T01:09:33.665Z,5.00
2019-03-21T01:12:02.971Z,5.43
2019-03-21T01:14:32.261Z,5.10
2019-03-21T01:17:01.608Z,5.60
2019-03-21T01:19:33.260Z,5.58
2019-03-21T01:22:02.088Z,5.80
2019-03-21T01:24:31.436Z,5.42
2019-03-21T01:27:00.695Z,5.50
2019-03-21T01:29:30.662Z,5.23
2019-03-21T01:31:59.936Z,5.80
2019-03-21T01:34:29.238Z,5.40
2019-03-21T01:36:58.490Z,4.73
2019-03-21T01:39:27.834Z,4.13
2019-03-21T01:41:57.112Z,4.70
2019-03-21T01:44:26.388Z,3.33
2019-03-21T01:46:55.644Z,4.03
2019-03-21T01:49:24.921Z,3.63
2019-03-21T01:51:54.324Z,3.87
2019-03-21T01:54:23.584Z,4.13
2019-03-21T01:56:52.848Z,4.80
2019-03-21T01:59:22.120Z,4.70
2019-03-21T02:01:51.385Z,4.87
2019-03-21T02:04:20.641Z,5.00
2019-03-21T02:06:49.944Z,4.93
2019-03-21T02:09:19.200Z,4.50
2019-03-21T02:11:48.455Z,5.10
2019-03-21T02:14:17.724Z,4.23
2019-03-21T02:16:46.990Z,4.60
2019-03-21T02:19:16.252Z,4.45
2019-03-21T02:21:45.613Z,4.80
2019-03-21T02:24:14.859Z,4.90
2019-03-21T02:26:44.140Z,5.03
2019-03-21T02:29:13.459Z,5.10
2019-03-21T02:31:42.752Z,4.85
2019-03-21T02:34:12.013Z,5.67
2019-03-21T02:36:41.288Z,4.93
2019-03-21T02:39:10.647Z,4.83
2019-03-21T02:41:39.916Z,5.17
2019-03-21T02:44:09.179Z,4.67
2019-03-21T02:46:38.557Z,4.50
2019-03-21T02:49:07.854Z,4.40
2019-03-21T02:51:37.139Z,5.07
2019-03-21T02:54:06.547Z,5.00
2019-03-21T02:56:36.738Z,4.83
2019-03-21T02:59:06.230Z,4.57
2019-03-21T03:01:35.480Z,4.40
2019-03-21T03:04:04.817Z,4.80
2019-03-21T03:06:34.155Z,4.43
2019-03-21T03:09:04.743Z,5.07
2019-03-21T03:11:34.081Z,4.30
2019-03-21T03:14:04.651Z,4.70
2019-03-21T03:16:34.017Z,4.63
2019-03-21T03:19:03.271Z,4.50
2019-03-21T03:21:32.657Z,4.97
2019-03-21T03:24:01.920Z,4.72
2019-03-21T03:26:31.164Z,5.20
2019-03-21T03:29:00.458Z,4.63
2019-03-21T03:31:29.726Z,4.87
2019-03-21T03:33:59.912Z,4.43
2019-03-21T03:36:29.166Z,4.33
2019-03-21T03:38:58.437Z,5.00
2019-03-21T03:41:27.679Z,4.50
2019-03-21T03:43:57.026Z,4.67
2019-03-21T03:46:26.286Z,4.78
2019-03-21T03:48:55.559Z,4.67
2019-03-21T03:51:24.817Z,5.30
2019-03-21T03:53:54.331Z,4.43
2019-03-21T03:56:23.609Z,4.53
2019-03-21T03:58:53.367Z,4.47
2019-03-21T04:01:22.922Z,4.50
2019-03-21T04:03:52.246Z,3.97
2019-03-21T04:06:21.619Z,4.50
2019-03-21T04:08:50.965Z,4.30
2019-03-21T04:11:20.588Z,4.63
2019-03-21T04:13:49.855Z,4.50
2019-03-21T04:16:19.138Z,5.77
2019-03-21T04:18:48.419Z,5.28
2019-03-21T04:21:17.800Z,5.37
2019-03-21T04:23:47.054Z,5.00
2019-03-21T04:26:25.939Z,5.23
2019-03-21T04:28:55.211Z,5.73
2019-03-21T04:31:24.480Z,5.80
2019-03-21T04:33:56.821Z,5.70
2019-03-21T04:36:26.172Z,5.87
2019-03-21T04:38:55.437Z,5.80
2019-03-21T04:41:24.725Z,6.10
2019-03-21T04:43:54.887Z,5.75
2019-03-21T04:46:24.235Z,5.80
2019-03-21T04:48:53.651Z,5.73
2019-03-21T04:51:22.949Z,5.40
2019-03-21T04:53:53.503Z,5.83
2019-03-21T04:56:23.011Z,5.47
2019-03-21T04:58:52.294Z,6.20
2019-03-21T05:01:21.564Z,5.20
2019-03-21T05:03:50.828Z,5.73
2019-03-21T05:06:20.117Z,5.80
2019-03-21T05:08:49.378Z,5.47
2019-03-21T05:11:18.716Z,5.10
2019-03-21T05:13:48.065Z,5.50
2019-03-21T05:16:18.851Z,5.50
2019-03-21T05:18:48.819Z,6.00
2019-03-21T05:21:18.734Z,6.50
2019-03-21T05:23:47.980Z,5.50
2019-03-21T05:26:17.353Z,5.73
2019-03-21T05:28:46.616Z,5.47
2019-03-21T05:31:19.194Z,5.60
2019-03-21T05:33:48.462Z,5.80
2019-03-21T05:36:17.740Z,5.77
2019-03-21T05:38:47.024Z,6.43
2019-03-21T05:41:16.433Z,5.80
2019-03-21T05:43:49.205Z,6.23
2019-03-21T05:46:26.708Z,5.90
2019-03-21T05:48:49.652Z,8.20
2019-03-21T05:51:18.963Z,8.33
2019-03-21T05:53:48.314Z,7.10
2019-03-21T05:56:17.591Z,5.67
2019-03-21T05:58:46.885Z,5.97
2019-03-21T06:01:16.202Z,5.27
2019-03-21T06:03:47.168Z,5.60
2019-03-21T06:06:26.561Z,6.23
2019-03-21T06:08:55.838Z,5.37
2019-03-21T06:11:25.187Z,5.63
2019-03-21T06:13:54.462Z,6.83
2019-03-21T06:16:23.734Z,7.12
2019-03-21T06:19:22.636Z,7.07
2019-03-21T06:22:16.721Z,6.10
2019-03-21T06:25:28.583Z,7.37
2019-03-21T06:27:58.014Z,6.77
2019-03-21T06:30:27.273Z,6.57
2019-03-21T06:32:56.636Z,6.42
2019-03-21T06:35:25.976Z,6.20
2019-03-21T06:37:55.257Z,6.13
2019-03-21T06:40:24.603Z,6.23
2019-03-21T06:42:53.850Z,6.07
2019-03-21T06:45:23.122Z,6.27
2019-03-21T06:47:53.287Z,6.23
2019-03-21T06:50:22.819Z,6.93
2019-03-21T06:52:52.071Z,6.70
2019-03-21T06:55:21.336Z,7.27
2019-03-21T06:57:50.691Z,6.70
2019-03-21T07:00:19.994Z,6.93
2019-03-21T07:02:49.272Z,6.75
2019-03-21T07:05:18.547Z,7.03
2019-03-21T07:07:48.770Z,6.75
2019-03-21T07:10:18.189Z,7.00
2019-03-21T07:12:47.529Z,7.20
2019-03-21T07:15:16.900Z,6.80
2019-03-21T07:17:46.187Z,6.73
2019-03-21T07:20:15.741Z,6.00
2019-03-21T07:22:45.015Z,6.33
2019-03-21T07:25:14.436Z,6.87
2019-03-21T07:27:43.700Z,6.60
2019-03-21T07:30:14.166Z,6.75
2019-03-21T07:32:43.453Z,6.17
2019-03-21T07:35:13.181Z,6.33
2019-03-21T07:37:42.765Z,6.40
2019-03-21T07:40:13.357Z,6.37
2019-03-21T07:42:42.660Z,6.60
2019-03-21T07:45:12.783Z,5.97
2019-03-21T07:47:42.594Z,5.40
2019-03-21T07:50:12.766Z,5.90
2019-03-21T07:52:47.615Z,5.90
2019-03-21T07:55:16.900Z,5.70
2019-03-21T07:57:46.268Z,5.17
2019-03-21T08:00:15.712Z,6.17
2019-03-21T08:02:45.059Z,5.05
2019-03-21T08:05:15.264Z,5.47
2019-03-21T08:07:49.973Z,5.73
2019-03-21T08:10:21.932Z,5.37
2019-03-21T08:12:51.281Z,5.33
2019-03-21T08:15:20.535Z,5.33
2019-03-21T08:17:49.883Z,5.03
2019-03-21T08:20:19.180Z,4.93
2019-03-21T08:22:48.789Z,5.33
2019-03-21T08:25:18.047Z,4.67
2019-03-21T08:27:47.324Z,5.43
2019-03-21T08:30:34.796Z,5.73
2019-03-21T08:33:05.151Z,5.17
2019-03-21T08:35:34.546Z,5.10
2019-03-21T08:38:04.065Z,4.80
2019-03-21T08:40:33.348Z,4.90
2019-03-21T08:43:02.649Z,5.00
2019-03-21T08:45:31.913Z,5.57
2019-03-21T08:48:01.242Z,6.20
2019-03-21T08:50:30.499Z,6.30
2019-03-21T08:52:59.784Z,6.03
2019-03-21T08:55:29.090Z,5.72
2019-03-21T08:57:58.363Z,5.90
2019-03-21T09:00:34.047Z,6.30
2019-03-21T09:02:58.768Z,5.97
2019-03-21T09:05:28.112Z,5.87
2019-03-21T09:07:57.402Z,5.73
2019-03-21T09:10:26.705Z,6.00
2019-03-21T09:12:55.960Z,6.93
2019-03-21T09:15:26.980Z,7.12
2019-03-21T09:17:56.256Z,6.20
2019-03-21T09:20:25.576Z,5.43
2019-03-21T09:22:54.847Z,6.03
2019-03-21T09:25:24.104Z,5.60
2019-03-21T09:28:02.197Z,5.60
2019-03-21T09:30:24.454Z,4.90
2019-03-21T09:32:53.721Z,5.28
2019-03-21T09:35:23.003Z,5.80
2019-03-21T09:37:52.324Z,4.97
2019-03-21T09:40:21.591Z,5.07
2019-03-21T09:42:50.846Z,4.80
2019-03-21T09:45:20.116Z,5.00
2019-03-21T09:47:49.388Z,4.67
2019-03-21T09:50:27.127Z,4.80
2019-03-21T09:52:57.863Z,4.85
2019-03-21T09:55:27.216Z,4.93
2019-03-21T09:57:57.029Z,5.20
2019-03-21T10:00:34.315Z,5.00
2019-03-21T10:03:05.990Z,5.00
2019-03-21T10:05:35.327Z,4.70
2019-03-21T10:08:05.096Z,4.40
2019-03-21T10:10:34.411Z,4.63
2019-03-21T10:13:04.168Z,4.70
2019-03-21T10:15:33.510Z,4.95
2019-03-21T10:18:02.822Z,4.77
2019-03-21T10:20:32.115Z,4.62
2019-03-21T10:23:01.372Z,4.30
2019-03-21T10:25:30.654Z,3.83
2019-03-21T10:27:59.924Z,4.30
2019-03-21T10:30:34.731Z,4.73
2019-03-21T10:33:05.748Z,4.90
2019-03-21T10:35:35.279Z,5.43
2019-03-21T10:38:05.078Z,3.93
2019-03-21T10:40:36.066Z,4.50
2019-03-21T10:43:06.133Z,4.63
2019-03-21T10:45:35.650Z,3.50
2019-03-21T10:48:05.354Z,3.40
2019-03-21T10:50:36.098Z,4.17
2019-03-21T10:53:06.276Z,4.17
2019-03-21T10:55:35.869Z,4.20
2019-03-21T10:58:06.231Z,4.45
2019-03-21T11:00:35.970Z,5.27
2019-03-21T11:03:05.807Z,5.42
2019-03-21T11:05:35.316Z,5.43
2019-03-21T11:08:05.290Z,5.40
2019-03-21T11:10:34.607Z,5.20
2019-03-21T11:13:04.605Z,4.95
2019-03-21T11:15:34.327Z,4.80
2019-03-21T11:18:04.722Z,4.83
2019-03-21T11:20:38.500Z,5.30
2019-03-21T11:23:08.545Z,5.23
2019-03-21T11:25:37.884Z,5.03
2019-03-21T11:28:08.462Z,4.87
2019-03-21T11:30:43.123Z,5.23
2019-03-21T11:33:12.478Z,4.93
2019-03-21T11:35:41.996Z,4.33
2019-03-21T11:38:11.402Z,4.07
2019-03-21T11:40:40.682Z,4.67
2019-03-21T11:43:17.732Z,4.70
2019-03-21T11:45:47.921Z,5.07
2019-03-21T11:48:17.579Z,4.77
2019-03-21T11:50:47.001Z,4.60
2019-03-21T11:53:16.296Z,4.33
2019-03-21T11:55:45.584Z,3.83
2019-03-21T11:58:17.444Z,4.60
2019-03-21T12:00:45.827Z,4.80
2019-03-21T12:03:15.096Z,4.70
2019-03-21T12:05:44.363Z,4.50
2019-03-21T12:08:13.637Z,4.90
2019-03-21T12:10:43.800Z,4.33
2019-03-21T12:13:13.102Z,4.80
2019-03-21T12:15:42.346Z,4.00
2019-03-21T12:18:11.608Z,3.77
2019-03-21T12:20:40.871Z,4.20
2019-03-21T12:23:10.252Z,3.50
2019-03-21T12:25:39.541Z,3.60
2019-03-21T12:28:08.806Z,3.30
2019-03-21T12:30:39.750Z,3.53
2019-03-21T12:33:09.109Z,3.20
2019-03-21T12:35:38.647Z,3.10
2019-03-21T12:38:07.994Z,2.37
2019-03-21T12:40:37.415Z,3.67
2019-03-21T12:43:07.365Z,3.20
2019-03-21T12:45:36.919Z,3.37
2019-03-21T12:48:06.925Z,3.40
2019-03-21T12:50:36.380Z,2.87
2019-03-21T12:53:05.975Z,2.60
2019-03-21T12:55:35.306Z,3.13
2019-03-21T12:58:05.881Z,3.00
2019-03-21T13:00:37.615Z,3.12
2019-03-21T13:03:07.429Z,3.27
2019-03-21T13:05:37.266Z,3.35
2019-03-21T13:08:06.983Z,3.67
2019-03-21T13:10:36.318Z,3.17
2019-03-21T13:13:06.562Z,3.10
2019-03-21T13:15:36.873Z,3.00
2019-03-21T13:18:07.569Z,2.80
2019-03-21T13:20:37.868Z,3.03
2019-03-21T13:23:07.861Z,2.77
2019-03-21T13:25:37.228Z,3.53
2019-03-21T13:28:07.361Z,2.90
2019-03-21T13:30:37.135Z,3.70
2019-03-21T13:33:06.870Z,3.87
2019-03-21T13:35:36.389Z,3.53
2019-03-21T13:38:05.940Z,4.15
2019-03-21T13:40:35.391Z,3.47
2019-03-21T13:43:04.919Z,4.33
2019-03-21T13:45:34.192Z,4.23
2019-03-21T13:48:04.011Z,3.62
2019-03-21T13:50:33.367Z,3.83
2019-03-21T13:53:05.067Z,4.00
2019-03-21T13:55:33.934Z,3.67
2019-03-21T13:58:03.203Z,3.80
2019-03-21T14:00:32.563Z,4.03
2019-03-21T14:03:01.862Z,3.40
2019-03-21T14:05:32.710Z,3.90
2019-03-21T14:08:02.998Z,3.40
2019-03-21T14:10:32.457Z,3.83
2019-03-21T14:13:01.723Z,3.93
2019-03-21T14:15:31.083Z,3.85
2019-03-21T14:18:00.420Z,3.50
2019-03-21T14:20:29.786Z,3.52
2019-03-21T14:22:59.045Z,3.97
2019-03-21T14:25:28.816Z,4.05
2019-03-21T14:27:58.093Z,3.87
2019-03-21T14:30:27.361Z,4.33
2019-03-21T14:32:56.649Z,4.00
2019-03-21T14:35:25.912Z,4.00
2019-03-21T14:37:55.172Z,4.17
2019-03-21T14:40:24.455Z,3.97
2019-03-21T14:42:53.822Z,3.60
2019-03-21T14:45:23.094Z,3.80
2019-03-21T14:47:52.369Z,3.87
2019-03-21T14:50:21.747Z,3.27
2019-03-21T14:52:51.052Z,3.63
2019-03-21T14:55:20.307Z,3.23
2019-03-21T14:57:49.747Z,3.53
2019-03-21T15:00:19.280Z,3.00
2019-03-21T15:02:48.575Z,3.63
2019-03-21T15:05:17.909Z,3.47
2019-03-21T15:07:48.368Z,3.30
2019-03-21T15:10:18.306Z,3.40
2019-03-21T15:12:47.595Z,3.40
2019-03-21T15:15:16.945Z,3.25
2019-03-21T15:17:46.302Z,3.77
2019-03-21T15:20:16.312Z,3.33
2019-03-21T15:22:45.857Z,2.90
2019-03-21T15:25:16.924Z,3.35
2019-03-21T15:27:46.229Z,3.33
2019-03-21T15:30:17.355Z,3.50
2019-03-21T15:32:46.839Z,3.43
2019-03-21T15:35:16.910Z,3.43
2019-03-21T15:37:46.359Z,3.23
2019-03-21T15:40:16.056Z,3.50
2019-03-21T15:42:45.410Z,3.10
2019-03-21T15:45:22.612Z,3.87
2019-03-21T15:47:47.614Z,3.62
2019-03-21T15:50:30.959Z,3.90
2019-03-21T15:53:00.397Z,3.80
2019-03-21T15:55:30.015Z,3.80
2019-03-21T15:57:59.573Z,3.37
2019-03-21T16:00:37.142Z,3.40
2019-03-21T16:03:07.200Z,3.30
2019-03-21T16:05:37.192Z,3.20
2019-03-21T16:08:08.960Z,2.92
2019-03-21T16:10:37.915Z,3.30
2019-03-21T16:13:07.196Z,3.20
2019-03-21T16:15:36.544Z,3.67
2019-03-21T16:18:06.722Z,3.15
2019-03-21T16:20:36.089Z,3.10
2019-03-21T16:23:06.453Z,3.10
2019-03-21T16:25:36.036Z,3.03
2019-03-21T16:28:05.927Z,3.23
2019-03-21T16:30:35.212Z,3.50
2019-03-21T16:33:04.696Z,3.43
2019-03-21T16:35:33.954Z,3.57
2019-03-21T16:38:03.227Z,3.20
2019-03-21T16:40:32.643Z,3.60
2019-03-21T16:43:01.922Z,4.37
2019-03-21T16:45:31.192Z,5.28
2019-03-21T16:48:00.516Z,3.87
2019-03-21T16:50:29.774Z,5.00
2019-03-21T16:52:59.059Z,3.70
2019-03-21T16:55:28.680Z,3.37
2019-03-21T16:57:58.200Z,3.23
2019-03-21T17:00:27.692Z,4.07
2019-03-21T17:02:57.341Z,3.75
2019-03-21T17:05:26.617Z,3.47
2019-03-21T17:07:55.898Z,4.80
2019-03-21T17:10:25.233Z,5.20
2019-03-21T17:12:54.514Z,4.63
2019-03-21T17:15:24.256Z,3.97
2019-03-21T17:17:54.187Z,4.10
2019-03-21T17:20:23.482Z,3.80
2019-03-21T17:22:54.621Z,3.20
2019-03-21T17:25:24.009Z,3.37
2019-03-21T17:27:54.826Z,3.67
2019-03-21T17:30:24.331Z,4.20
2019-03-21T17:32:53.610Z,4.07
2019-03-21T17:35:22.893Z,3.10
2019-03-21T17:37:52.168Z,3.20
2019-03-21T17:40:21.816Z,3.40
2019-03-21T17:42:51.129Z,3.37
2019-03-21T17:45:20.544Z,3.42
2019-03-21T17:47:55.045Z,3.90
2019-03-21T17:50:24.343Z,3.67
2019-03-21T17:52:53.692Z,3.80
2019-03-21T17:55:23.091Z,4.10
2019-03-21T17:57:52.349Z,4.63
2019-03-21T18:00:23.549Z,3.60
2019-03-21T18:02:53.294Z,4.00
2019-03-21T18:05:22.700Z,4.10
2019-03-21T18:07:51.957Z,3.20
2019-03-21T18:10:31.360Z,3.67
2019-03-21T18:13:01.318Z,3.80
2019-03-21T18:15:30.956Z,3.20
2019-03-21T18:18:00.337Z,3.10
2019-03-21T18:20:29.743Z,3.47
2019-03-21T18:22:59.092Z,3.42
2019-03-21T18:25:28.372Z,3.50
2019-03-21T18:27:57.710Z,3.07
2019-03-21T18:30:27.136Z,3.37
2019-03-21T18:32:56.377Z,3.43
2019-03-21T18:35:26.067Z,3.67
2019-03-21T18:37:55.420Z,3.10
2019-03-21T18:40:24.841Z,2.50
2019-03-21T18:42:54.110Z,2.83
2019-03-21T18:45:23.374Z,3.20
2019-03-21T18:47:52.834Z,3.13
2019-03-21T18:50:22.212Z,2.97
2019-03-21T18:52:51.466Z,2.60
2019-03-21T18:55:20.891Z,2.62
2019-03-21T18:57:50.224Z,2.63
2019-03-21T19:00:20.455Z,3.80
2019-03-21T19:02:49.925Z,6.93
2019-03-21T19:05:19.216Z,7.67
2019-03-21T19:07:48.496Z,10.33
2019-03-21T19:10:17.920Z,9.00
2019-03-21T19:12:47.362Z,5.90
2019-03-21T19:15:18.567Z,5.47
2019-03-21T19:17:47.903Z,5.20
2019-03-21T19:20:17.611Z,3.63
2019-03-21T19:22:47.463Z,14.75
2019-03-21T19:25:19.831Z,7.37
2019-03-21T19:27:49.493Z,5.13
2019-03-21T19:30:19.098Z,4.27
2019-03-21T19:32:48.546Z,4.35
2019-03-21T19:35:18.296Z,4.10
2019-03-21T19:37:48.676Z,4.37
2019-03-21T19:40:18.617Z,4.50
2019-03-21T19:42:47.982Z,3.10
2019-03-21T19:45:18.657Z,2.60
2019-03-21T19:47:48.300Z,3.37
2019-03-21T19:50:18.622Z,3.23
2019-03-21T19:52:48.484Z,3.50
2019-03-21T19:55:25.895Z,3.77
2019-03-21T19:57:49.686Z,3.50
2019-03-21T20:00:20.263Z,5.55
2019-03-21T20:02:50.442Z,8.57
2019-03-21T20:05:21.538Z,7.35
2019-03-21T20:07:50.824Z,4.50
2019-03-21T20:10:21.908Z,4.28
2019-03-21T20:12:51.356Z,3.30
2019-03-21T20:15:20.757Z,2.90
2019-03-21T20:17:50.715Z,2.87
2019-03-21T20:20:20.132Z,3.30
2019-03-21T20:22:49.467Z,3.27
2019-03-21T20:25:18.822Z,2.60
2019-03-21T20:27:48.811Z,2.60
2019-03-21T20:30:18.704Z,2.70
2019-03-21T20:32:48.234Z,2.03
2019-03-21T20:35:17.867Z,2.60
2019-03-21T20:37:49.418Z,2.50
2019-03-21T20:40:19.373Z,1.80
2019-03-21T20:42:48.714Z,2.33
2019-03-21T20:45:18.391Z,2.10
2019-03-21T20:47:47.871Z,1.87
2019-03-21T20:50:18.184Z,1.63
2019-03-21T20:52:47.662Z,2.58
2019-03-21T20:55:17.091Z,2.40
2019-03-21T20:57:46.929Z,2.37
2019-03-21T21:00:21.013Z,2.77
2019-03-21T21:02:52.977Z,2.58
2019-03-21T21:05:23.450Z,3.83
2019-03-21T21:07:52.981Z,3.53
2019-03-21T21:10:22.384Z,3.37
2019-03-21T21:12:51.720Z,3.80
2019-03-21T21:15:21.122Z,4.13
2019-03-21T21:17:50.422Z,4.33
2019-03-21T21:20:20.075Z,4.03
2019-03-21T21:22:49.368Z,8.30
2019-03-21T21:25:18.635Z,5.95
2019-03-21T21:27:49.801Z,3.33
2019-03-21T21:30:19.766Z,2.75
2019-03-21T21:32:49.142Z,2.97
2019-03-21T21:35:18.737Z,2.83
2019-03-21T21:37:49.382Z,3.17
2019-03-21T21:40:19.262Z,3.20
2019-03-21T21:42:48.530Z,3.73
2019-03-21T21:45:18.559Z,3.13
2019-03-21T21:47:47.860Z,3.40
2019-03-21T21:50:17.806Z,3.10
2019-03-21T21:52:48.414Z,4.00
2019-03-21T21:55:17.855Z,3.80
2019-03-21T21:57:47.200Z,3.70
2019-03-21T22:00:17.206Z,4.20
2019-03-21T22:02:46.451Z,3.90
2019-03-21T22:05:15.854Z,4.43
2019-03-21T22:07:45.276Z,4.33
2019-03-21T22:10:14.815Z,4.17
2019-03-21T22:12:45.976Z,3.60
2019-03-21T22:15:15.851Z,3.87
2019-03-21T22:17:45.110Z,3.60
2019-03-21T22:20:16.747Z,3.30
2019-03-21T22:22:46.349Z,3.87
2019-03-21T22:25:15.976Z,3.63
2019-03-21T22:27:45.322Z,3.50
2019-03-21T22:30:15.424Z,3.98
2019-03-21T22:32:44.767Z,3.40
2019-03-21T22:35:14.515Z,3.83
2019-03-21T22:37:46.092Z,3.90
2019-03-21T22:40:17.285Z,3.53
2019-03-21T22:42:46.700Z,3.53
2019-03-21T22:45:16.571Z,3.27
2019-03-21T22:47:45.910Z,2.90
2019-03-21T22:50:16.012Z,2.87
2019-03-21T22:52:45.975Z,2.83
2019-03-21T22:55:15.678Z,3.20
2019-03-21T22:57:45.038Z,2.90
2019-03-21T23:00:16.974Z,2.70
2019-03-21T23:02:46.408Z,2.72
2019-03-21T23:05:16.256Z,2.40
2019-03-21T23:07:45.645Z,2.73
2019-03-21T23:10:15.860Z,3.00
2019-03-21T23:12:45.535Z,2.95
2019-03-21T23:15:15.228Z,2.70
2019-03-21T23:17:49.468Z,3.00
2019-03-21T23:20:19.317Z,3.13
2019-03-21T23:22:48.893Z,3.53
2019-03-21T23:25:18.696Z,3.60
2019-03-21T23:27:49.206Z,3.53
2019-03-21T23:30:18.984Z,2.87
2019-03-21T23:32:48.486Z,3.50
2019-03-21T23:35:18.053Z,3.65
2019-03-21T23:37:47.919Z,3.37
2019-03-21T23:40:17.847Z,3.87
2019-03-21T23:42:47.499Z,4.60
2019-03-21T23:45:19.753Z,4.03
2019-03-21T23:47:48.340Z,3.57
2019-03-21T23:50:18.092Z,4.00
2019-03-21T23:52:47.411Z,4.10
2019-03-21T23:55:17.140Z,4.03
2019-03-21T23:57:46.406Z,4.57
